sensor_id;sensor_type;location;lat;lon;timestamp;pressure;altitude;pressure_sealevel;temperature;humidity
54453;BME280;40363;52.270;10.546;2022-12-24T00:00:55;76275.53;;;-147.06;100.00
54453;BME280;40363;52.270;10.546;2022-12-24T00:03:22;76275.53;;;-147.06;100.00
54453;BME280;40363;52.270;10.546;2022-12-24T00:05:48;76279.66;;;-147.06;100.00
54453;BME280;40363;52.270;10.546;2022-12-24T00:08:16;76275.53;;;-147.06;100.00
54453;BME280;40363;52.270;10.546;2022-12-24T00:10:42;76283.75;;;-147.06;100.00
54453;BME280;40363;52.270;10.546;2022-12-24T00:13:09;76271.44;;;-147.06;100.00
54453;BME280;40363;52.270;10.546;2022-12-24T00:15:35;76287.88;;;-147.06;100.00
54453;BME280;40363;52.270;10.546;2022-12-24T00:18:02;76294.03;;;-147.06;100.00
54453;BME280;40363;52.270;10.546;2022-12-24T00:20:28;76304.31;;;-147.06;100.00
54453;BME280;40363;52.270;10.546;2022-12-24T00:22:55;76300.19;;;-147.06;100.00
54453;BME280;40363;52.270;10.546;2022-12-24T00:25:23;76296.09;;;-147.06;100.00
54453;BME280;40363;52.270;10.546;2022-12-24T00:27:49;76298.16;;;-147.06;100.00
54453;BME280;40363;52.270;10.546;2022-12-24T00:30:16;76296.09;;;-147.06;100.00
54453;BME280;40363;52.270;10.546;2022-12-24T00:32:42;76300.19;;;-147.06;100.00
54453;BME280;40363;52.270;10.546;2022-12-24T00:35:09;76300.19;;;-147.06;100.00
54453;BME280;40363;52.270;10.546;2022-12-24T00:37:35;76320.75;;;-147.06;100.00
54453;BME280;40363;52.270;10.546;2022-12-24T00:40:02;76312.53;;;-147.06;100.00
54453;BME280;40363;52.270;10.546;2022-12-24T00:42:30;76316.66;;;-147.06;100.00
54453;BME280;40363;52.270;10.546;2022-12-24T00:44:56;76320.75;;;-147.06;100.00
54453;BME280;40363;52.270;10.546;2022-12-24T00:47:23;76322.81;;;-147.06;100.00
54453;BME280;40363;52.270;10.546;2022-12-24T00:49:49;76324.88;;;-147.06;100.00
54453;BME280;40363;52.270;10.546;2022-12-24T00:52:15;76320.75;;;-147.06;100.00
54453;BME280;40363;52.270;10.546;2022-12-24T00:54:42;76337.19;;;-147.06;100.00
54453;BME280;40363;52.270;10.546;2022-12-24T00:57:08;76345.41;;;-147.06;100.00
54453;BME280;40363;52.270;10.546;2022-12-24T00:59:36;76333.09;;;-147.06;100.00
54453;BME280;40363;52.270;10.546;2022-12-24T01:02:03;76337.19;;;-147.06;100.00
54453;BME280;40363;52.270;10.546;2022-12-24T01:04:29;76339.25;;;-147.06;100.00
54453;BME280;40363;52.270;10.546;2022-12-24T01:07:13;76347.47;;;-147.06;100.00
54453;BME280;40363;52.270;10.546;2022-12-24T01:09:39;76351.59;;;-147.06;100.00
54453;BME280;40363;52.270;10.546;2022-12-24T01:12:06;76349.53;;;-147.06;100.00
54453;BME280;40363;52.270;10.546;2022-12-24T01:14:32;76347.47;;;-147.06;100.00
54453;BME280;40363;52.270;10.546;2022-12-24T01:17:00;76349.53;;;-147.06;100.00
54453;BME280;40363;52.270;10.546;2022-12-24T01:19:27;76353.63;;;-147.06;100.00
54453;BME280;40363;52.270;10.546;2022-12-24T01:21:53;76361.84;;;-147.06;100.00
54453;BME280;40363;52.270;10.546;2022-12-24T01:24:20;76361.84;;;-147.06;100.00
54453;BME280;40363;52.270;10.546;2022-12-24T01:26:46;76374.19;;;-147.06;100.00
54453;BME280;40363;52.270;10.546;2022-12-24T01:29:13;76365.97;;;-147.06;100.00
54453;BME280;40363;52.270;10.546;2022-12-24T01:31:39;76368.03;;;-147.06;100.00
54453;BME280;40363;52.270;10.546;2022-12-24T01:34:07;76382.41;;;-147.06;100.00
54453;BME280;40363;52.270;10.546;2022-12-24T01:36:34;76378.31;;;-147.06;100.00
54453;BME280;40363;52.270;10.546;2022-12-24T01:39:01;76384.47;;;-147.06;100.00
54453;BME280;40363;52.270;10.546;2022-12-24T01:41:28;76380.34;;;-147.06;100.00
54453;BME280;40363;52.270;10.546;2022-12-24T01:44:20;76392.69;;;-147.06;100.00
54453;BME280;40363;52.270;10.546;2022-12-24T01:46:47;76396.81;;;-147.06;100.00
54453;BME280;40363;52.270;10.546;2022-12-24T01:49:16;76392.69;;;-147.06;100.00
54453;BME280;40363;52.270;10.546;2022-12-24T01:51:43;76392.69;;;-147.06;100.00
54453;BME280;40363;52.270;10.546;2022-12-24T01:54:12;76380.34;;;-147.06;100.00
54453;BME280;40363;52.270;10.546;2022-12-24T01:56:41;76386.53;;;-147.06;100.00
54453;BME280;40363;52.270;10.546;2022-12-24T01:59:10;76402.97;;;-147.06;100.00
54453;BME280;40363;52.270;10.546;2022-12-24T02:01:37;76398.84;;;-147.06;100.00
54453;BME280;40363;52.270;10.546;2022-12-24T02:04:05;76415.31;;;-147.06;100.00
54453;BME280;40363;52.270;10.546;2022-12-24T02:06:35;76400.91;;;-147.06;100.00
54453;BME280;40363;52.270;10.546;2022-12-24T02:09:02;76394.75;;;-147.06;100.00
54453;BME280;40363;52.270;10.546;2022-12-24T02:11:28;76396.81;;;-147.06;100.00
54453;BME280;40363;52.270;10.546;2022-12-24T02:13:56;76396.81;;;-147.06;100.00
54453;BME280;40363;52.270;10.546;2022-12-24T02:16:27;76398.84;;;-147.06;100.00
54453;BME280;40363;52.270;10.546;2022-12-24T02:18:59;76413.25;;;-147.06;100.00
54453;BME280;40363;52.270;10.546;2022-12-24T02:24:20;76435.84;;;-147.06;100.00
54453;BME280;40363;52.270;10.546;2022-12-24T02:27:04;76427.63;;;-147.06;100.00
54453;BME280;40363;52.270;10.546;2022-12-24T02:29:53;76423.53;;;-147.06;100.00
54453;BME280;40363;52.270;10.546;2022-12-24T02:32:25;76413.25;;;-147.06;100.00
54453;BME280;40363;52.270;10.546;2022-12-24T02:34:54;76415.31;;;-147.06;100.00
54453;BME280;40363;52.270;10.546;2022-12-24T02:37:24;76421.47;;;-147.06;100.00
54453;BME280;40363;52.270;10.546;2022-12-24T02:39:54;76427.63;;;-147.06;100.00
54453;BME280;40363;52.270;10.546;2022-12-24T02:42:26;76411.19;;;-147.06;100.00
54453;BME280;40363;52.270;10.546;2022-12-24T02:44:56;76411.19;;;-147.06;100.00
54453;BME280;40363;52.270;10.546;2022-12-24T02:47:25;76411.19;;;-147.06;100.00
54453;BME280;40363;52.270;10.546;2022-12-24T02:49:52;76407.06;;;-147.06;100.00
54453;BME280;40363;52.270;10.546;2022-12-24T02:52:29;76429.69;;;-147.06;100.00
54453;BME280;40363;52.270;10.546;2022-12-24T02:54:55;76402.97;;;-147.06;100.00
54453;BME280;40363;52.270;10.546;2022-12-24T02:57:24;76400.91;;;-147.06;100.00
54453;BME280;40363;52.270;10.546;2022-12-24T02:59:58;76405.03;;;-147.06;100.00
54453;BME280;40363;52.270;10.546;2022-12-24T03:02:26;76394.75;;;-147.06;100.00
54453;BME280;40363;52.270;10.546;2022-12-24T03:04:56;76409.13;;;-147.06;100.00
54453;BME280;40363;52.270;10.546;2022-12-24T03:07:27;76405.03;;;-147.06;100.00
54453;BME280;40363;52.270;10.546;2022-12-24T03:09:55;76407.06;;;-147.06;100.00
54453;BME280;40363;52.270;10.546;2022-12-24T03:12:25;76409.13;;;-147.06;100.00
54453;BME280;40363;52.270;10.546;2022-12-24T03:14:53;76407.06;;;-147.06;100.00
54453;BME280;40363;52.270;10.546;2022-12-24T03:17:21;76402.97;;;-147.06;100.00
54453;BME280;40363;52.270;10.546;2022-12-24T03:19:47;76407.06;;;-147.06;100.00
54453;BME280;40363;52.270;10.546;2022-12-24T03:22:14;76398.84;;;-147.06;100.00
54453;BME280;40363;52.270;10.546;2022-12-24T03:24:42;76390.63;;;-147.06;100.00
54453;BME280;40363;52.270;10.546;2022-12-24T03:27:08;76407.06;;;-147.06;100.00
54453;BME280;40363;52.270;10.546;2022-12-24T03:29:37;76407.06;;;-147.06;100.00
54453;BME280;40363;52.270;10.546;2022-12-24T03:32:04;76407.06;;;-147.06;100.00
54453;BME280;40363;52.270;10.546;2022-12-24T03:34:32;76409.13;;;-147.06;100.00
54453;BME280;40363;52.270;10.546;2022-12-24T03:36:58;76405.03;;;-147.06;100.00
54453;BME280;40363;52.270;10.546;2022-12-24T03:39:25;76398.84;;;-147.06;100.00
54453;BME280;40363;52.270;10.546;2022-12-24T03:41:51;76402.97;;;-147.06;100.00
54453;BME280;40363;52.270;10.546;2022-12-24T03:44:18;76394.75;;;-147.06;100.00
54453;BME280;40363;52.270;10.546;2022-12-24T03:46:44;76372.13;;;-147.06;100.00
54453;BME280;40363;52.270;10.546;2022-12-24T03:49:11;76365.97;;;-147.06;100.00
54453;BME280;40363;52.270;10.546;2022-12-24T03:51:38;76353.63;;;-147.06;100.00
54453;BME280;40363;52.270;10.546;2022-12-24T03:54:05;76335.13;;;-147.06;100.00
54453;BME280;40363;52.270;10.546;2022-12-24T03:56:31;76324.88;;;-147.06;100.00
54453;BME280;40363;52.270;10.546;2022-12-24T03:58:58;76304.31;;;-147.06;100.00
54453;BME280;40363;52.270;10.546;2022-12-24T04:01:24;76287.88;;;-147.06;100.00
54453;BME280;40363;52.270;10.546;2022-12-24T04:03:50;76248.81;;;-147.06;100.00
54453;BME280;40363;52.270;10.546;2022-12-24T04:06:17;76240.59;;;-147.06;100.00
54453;BME280;40363;52.270;10.546;2022-12-24T04:08:45;76218.00;;;-147.06;100.00
54453;BME280;40363;52.270;10.546;2022-12-24T04:11:12;76201.56;;;-147.06;100.00
54453;BME280;40363;52.270;10.546;2022-12-24T04:13:38;76199.50;;;-147.06;100.00
54453;BME280;40363;52.270;10.546;2022-12-24T04:16:06;76197.44;;;-147.06;100.00
54453;BME280;40363;52.270;10.546;2022-12-24T04:18:33;76193.31;;;-147.06;100.00
54453;BME280;40363;52.270;10.546;2022-12-24T04:21:00;76189.22;;;-147.06;100.00
54453;BME280;40363;52.270;10.546;2022-12-24T04:23:28;76185.09;;;-147.06;100.00
54453;BME280;40363;52.270;10.546;2022-12-24T04:25:57;76181.00;;;-147.06;100.00
54453;BME280;40363;52.270;10.546;2022-12-24T04:28:23;76174.84;;;-147.06;100.00
54453;BME280;40363;52.270;10.546;2022-12-24T04:30:50;76170.72;;;-147.06;100.00
54453;BME280;40363;52.270;10.546;2022-12-24T04:33:16;76168.66;;;-147.06;100.00
54453;BME280;40363;52.270;10.546;2022-12-24T04:35:43;76164.56;;;-147.06;100.00
54453;BME280;40363;52.270;10.546;2022-12-24T04:38:09;76154.28;;;-147.06;100.00
54453;BME280;40363;52.270;10.546;2022-12-24T04:40:36;76150.16;;;-147.06;100.00
54453;BME280;40363;52.270;10.546;2022-12-24T04:43:03;76164.56;;;-147.06;100.00
54453;BME280;40363;52.270;10.546;2022-12-24T04:45:30;76168.66;;;-147.06;100.00
54453;BME280;40363;52.270;10.546;2022-12-24T04:47:57;76168.66;;;-147.06;100.00
54453;BME280;40363;52.270;10.546;2022-12-24T04:50:23;76160.44;;;-147.06;100.00
54453;BME280;40363;52.270;10.546;2022-12-24T04:52:50;76162.50;;;-147.06;100.00
54453;BME280;40363;52.270;10.546;2022-12-24T04:55:16;76168.66;;;-147.06;100.00
54453;BME280;40363;52.270;10.546;2022-12-24T04:57:42;76176.88;;;-147.06;100.00
54453;BME280;40363;52.270;10.546;2022-12-24T05:00:11;76172.78;;;-147.06;100.00
54453;BME280;40363;52.270;10.546;2022-12-24T05:02:37;76176.88;;;-147.06;100.00
54453;BME280;40363;52.270;10.546;2022-12-24T05:05:04;76174.84;;;-147.06;100.00
54453;BME280;40363;52.270;10.546;2022-12-24T05:07:32;76174.84;;;-147.06;100.00
54453;BME280;40363;52.270;10.546;2022-12-24T05:09:59;76181.00;;;-147.06;100.00
54453;BME280;40363;52.270;10.546;2022-12-24T05:12:25;76172.78;;;-147.06;100.00
54453;BME280;40363;52.270;10.546;2022-12-24T05:14:51;76172.78;;;-147.06;100.00
54453;BME280;40363;52.270;10.546;2022-12-24T05:17:19;76168.66;;;-147.06;100.00
54453;BME280;40363;52.270;10.546;2022-12-24T05:19:46;76178.94;;;-147.06;100.00
54453;BME280;40363;52.270;10.546;2022-12-24T05:22:12;76185.09;;;-147.06;100.00
54453;BME280;40363;52.270;10.546;2022-12-24T05:24:55;76191.28;;;-147.06;100.00
54453;BME280;40363;52.270;10.546;2022-12-24T05:27:54;76201.56;;;-147.06;100.00
54453;BME280;40363;52.270;10.546;2022-12-24T05:30:21;76201.56;;;-147.06;100.00
54453;BME280;40363;52.270;10.546;2022-12-24T05:32:48;76199.50;;;-147.06;100.00
54453;BME280;40363;52.270;10.546;2022-12-24T05:35:15;76189.22;;;-147.06;100.00
54453;BME280;40363;52.270;10.546;2022-12-24T05:37:41;76197.44;;;-147.06;100.00
54453;BME280;40363;52.270;10.546;2022-12-24T05:40:08;76205.66;;;-147.06;100.00
54453;BME280;40363;52.270;10.546;2022-12-24T05:42:35;76201.56;;;-147.06;100.00
54453;BME280;40363;52.270;10.546;2022-12-24T05:45:01;76205.66;;;-147.06;100.00
54453;BME280;40363;52.270;10.546;2022-12-24T05:47:28;76215.94;;;-147.06;100.00
54453;BME280;40363;52.270;10.546;2022-12-24T05:49:55;76222.09;;;-147.06;100.00
54453;BME280;40363;52.270;10.546;2022-12-24T05:52:22;76213.88;;;-147.06;100.00
54453;BME280;40363;52.270;10.546;2022-12-24T05:54:48;76226.22;;;-147.06;100.00
54453;BME280;40363;52.270;10.546;2022-12-24T05:57:15;76230.31;;;-147.06;100.00
54453;BME280;40363;52.270;10.546;2022-12-24T05:59:41;76226.22;;;-147.06;100.00
54453;BME280;40363;52.270;10.546;2022-12-24T06:02:07;76226.22;;;-147.06;100.00
54453;BME280;40363;52.270;10.546;2022-12-24T06:04:34;76230.31;;;-147.06;100.00
54453;BME280;40363;52.270;10.546;2022-12-24T06:07:02;76238.53;;;-147.06;100.00
54453;BME280;40363;52.270;10.546;2022-12-24T06:09:28;76238.53;;;-147.06;100.00
54453;BME280;40363;52.270;10.546;2022-12-24T06:11:55;76246.75;;;-147.06;100.00
54453;BME280;40363;52.270;10.546;2022-12-24T06:14:21;76246.75;;;-147.06;100.00
54453;BME280;40363;52.270;10.546;2022-12-24T06:16:47;76255.00;;;-147.06;100.00
54453;BME280;40363;52.270;10.546;2022-12-24T06:19:14;76257.03;;;-147.06;100.00
54453;BME280;40363;52.270;10.546;2022-12-24T06:21:40;76246.75;;;-147.06;100.00
54453;BME280;40363;52.270;10.546;2022-12-24T06:24:08;76244.72;;;-147.06;99.80
54453;BME280;40363;52.270;10.546;2022-12-24T06:26:35;76255.00;;;-147.06;100.00
54453;BME280;40363;52.270;10.546;2022-12-24T06:29:01;76263.22;;;-147.06;100.00
54453;BME280;40363;52.270;10.546;2022-12-24T06:31:28;76267.31;;;-147.06;100.00
54453;BME280;40363;52.270;10.546;2022-12-24T06:33:54;76269.38;;;-147.06;100.00
54453;BME280;40363;52.270;10.546;2022-12-24T06:36:22;76275.53;;;-147.06;100.00
54453;BME280;40363;52.270;10.546;2022-12-24T06:38:48;76287.88;;;-147.06;100.00
54453;BME280;40363;52.270;10.546;2022-12-24T06:41:17;76300.19;;;-147.06;100.00
54453;BME280;40363;52.270;10.546;2022-12-24T06:43:43;76302.25;;;-147.06;100.00
54453;BME280;40363;52.270;10.546;2022-12-24T06:46:11;76300.19;;;-147.06;100.00
54453;BME280;40363;52.270;10.546;2022-12-24T06:48:37;76306.38;;;-147.06;100.00
54453;BME280;40363;52.270;10.546;2022-12-24T06:51:04;76304.31;;;-147.06;100.00
54453;BME280;40363;52.270;10.546;2022-12-24T06:53:31;76306.38;;;-147.06;100.00
54453;BME280;40363;52.270;10.546;2022-12-24T06:56:01;76300.19;;;-147.06;100.00
54453;BME280;40363;52.270;10.546;2022-12-24T06:58:29;76306.38;;;-147.06;100.00
54453;BME280;40363;52.270;10.546;2022-12-24T07:00:56;76302.25;;;-147.06;100.00
54453;BME280;40363;52.270;10.546;2022-12-24T07:03:22;76306.38;;;-147.06;100.00
54453;BME280;40363;52.270;10.546;2022-12-24T07:05:48;76308.44;;;-147.06;100.00
54453;BME280;40363;52.270;10.546;2022-12-24T07:08:15;76306.38;;;-147.06;100.00
54453;BME280;40363;52.270;10.546;2022-12-24T07:10:41;76320.75;;;-147.06;100.00
54453;BME280;40363;52.270;10.546;2022-12-24T07:13:08;76324.88;;;-147.06;100.00
54453;BME280;40363;52.270;10.546;2022-12-24T07:15:35;76333.09;;;-147.06;100.00
54453;BME280;40363;52.270;10.546;2022-12-24T07:18:02;76326.91;;;-147.06;100.00
54453;BME280;40363;52.270;10.546;2022-12-24T07:20:28;76324.88;;;-147.06;100.00
54453;BME280;40363;52.270;10.546;2022-12-24T07:22:55;76320.75;;;-147.06;100.00
54453;BME280;40363;52.270;10.546;2022-12-24T07:25:21;76328.97;;;-147.06;100.00
54453;BME280;40363;52.270;10.546;2022-12-24T07:27:48;76320.75;;;-147.06;99.35
54453;BME280;40363;52.270;10.546;2022-12-24T07:30:15;76326.91;;;-147.06;99.02
54453;BME280;40363;52.270;10.546;2022-12-24T07:32:43;76320.75;;;-147.06;98.07
54453;BME280;40363;52.270;10.546;2022-12-24T07:35:09;76324.88;;;-147.06;97.58
54453;BME280;40363;52.270;10.546;2022-12-24T07:37:36;76333.09;;;-147.06;97.11
54453;BME280;40363;52.270;10.546;2022-12-24T07:40:02;76335.13;;;-147.06;96.82
54453;BME280;40363;52.270;10.546;2022-12-24T07:42:32;76324.88;;;-147.06;96.37
54453;BME280;40363;52.270;10.546;2022-12-24T07:44:58;76339.25;;;-147.06;96.25
54453;BME280;40363;52.270;10.546;2022-12-24T07:47:24;76341.31;;;-147.06;96.09
54453;BME280;40363;52.270;10.546;2022-12-24T07:49:52;76345.41;;;-147.06;95.95
54453;BME280;40363;52.270;10.546;2022-12-24T07:52:21;76349.53;;;-147.06;95.65
54453;BME280;40363;52.270;10.546;2022-12-24T07:54:47;76349.53;;;-147.06;95.40
54453;BME280;40363;52.270;10.546;2022-12-24T07:57:14;76361.84;;;-147.06;95.47
54453;BME280;40363;52.270;10.546;2022-12-24T07:59:40;76353.63;;;-147.06;95.07
54453;BME280;40363;52.270;10.546;2022-12-24T08:02:08;76349.53;;;-147.06;94.58
54453;BME280;40363;52.270;10.546;2022-12-24T08:04:34;76347.47;;;-147.06;94.36
54453;BME280;40363;52.270;10.546;2022-12-24T08:07:03;76351.59;;;-147.06;93.96
54453;BME280;40363;52.270;10.546;2022-12-24T08:09:30;76357.75;;;-147.06;93.91
54453;BME280;40363;52.270;10.546;2022-12-24T08:11:56;76361.84;;;-147.06;94.10
54453;BME280;40363;52.270;10.546;2022-12-24T08:14:23;76365.97;;;-147.06;93.64
54453;BME280;40363;52.270;10.546;2022-12-24T08:16:50;76368.03;;;-147.06;94.01
54453;BME280;40363;52.270;10.546;2022-12-24T08:19:18;76361.84;;;-147.06;93.87
54453;BME280;40363;52.270;10.546;2022-12-24T08:21:47;76365.97;;;-147.06;93.17
54453;BME280;40363;52.270;10.546;2022-12-24T08:24:15;76361.84;;;-147.06;93.55
54453;BME280;40363;52.270;10.546;2022-12-24T08:26:41;76359.81;;;-147.06;93.09
54453;BME280;40363;52.270;10.546;2022-12-24T08:29:08;76363.91;;;-147.06;92.79
54453;BME280;40363;52.270;10.546;2022-12-24T08:31:34;76361.84;;;-147.06;92.77
54453;BME280;40363;52.270;10.546;2022-12-24T08:34:01;76363.91;;;-147.06;92.94
54453;BME280;40363;52.270;10.546;2022-12-24T08:36:28;76368.03;;;-147.06;92.27
54453;BME280;40363;52.270;10.546;2022-12-24T08:38:54;76365.97;;;-147.06;92.50
54453;BME280;40363;52.270;10.546;2022-12-24T08:41:22;76365.97;;;-147.06;92.71
54453;BME280;40363;52.270;10.546;2022-12-24T08:43:49;76374.19;;;-147.06;92.88
54453;BME280;40363;52.270;10.546;2022-12-24T08:46:15;76353.63;;;-147.06;92.10
54453;BME280;40363;52.270;10.546;2022-12-24T08:48:42;76361.84;;;-147.06;92.18
54453;BME280;40363;52.270;10.546;2022-12-24T08:51:08;76368.03;;;-147.06;92.46
54453;BME280;40363;52.270;10.546;2022-12-24T08:53:35;76372.13;;;-147.06;92.29
54453;BME280;40363;52.270;10.546;2022-12-24T08:56:02;76365.97;;;-147.06;91.29
54453;BME280;40363;52.270;10.546;2022-12-24T08:58:30;76380.34;;;-147.06;91.97
54453;BME280;40363;52.270;10.546;2022-12-24T09:00:57;76388.59;;;-147.06;92.00
54453;BME280;40363;52.270;10.546;2022-12-24T09:03:24;76386.53;;;-147.06;91.85
54453;BME280;40363;52.270;10.546;2022-12-24T09:05:50;76382.41;;;-147.06;91.98
54453;BME280;40363;52.270;10.546;2022-12-24T09:08:17;76382.41;;;-147.06;92.03
54453;BME280;40363;52.270;10.546;2022-12-24T09:10:44;76376.25;;;-147.06;91.62
54453;BME280;40363;52.270;10.546;2022-12-24T09:13:11;76374.19;;;-147.06;91.67
54453;BME280;40363;52.270;10.546;2022-12-24T09:15:39;76361.84;;;-147.06;91.30
54453;BME280;40363;52.270;10.546;2022-12-24T09:18:05;76363.91;;;-147.06;91.17
54453;BME280;40363;52.270;10.546;2022-12-24T09:20:32;76372.13;;;-147.06;91.28
54453;BME280;40363;52.270;10.546;2022-12-24T09:22:59;76374.19;;;-147.06;91.63
54453;BME280;40363;52.270;10.546;2022-12-24T09:25:25;76361.84;;;-147.06;91.81
54453;BME280;40363;52.270;10.546;2022-12-24T09:27:52;76363.91;;;-147.06;92.38
54453;BME280;40363;52.270;10.546;2022-12-24T09:30:18;76370.09;;;-147.06;93.08
54453;BME280;40363;52.270;10.546;2022-12-24T09:32:46;76390.63;;;-147.06;93.95
54453;BME280;40363;52.270;10.546;2022-12-24T09:35:13;76394.75;;;-147.06;94.92
54453;BME280;40363;52.270;10.546;2022-12-24T09:37:39;76423.53;;;-147.06;96.40
54453;BME280;40363;52.270;10.546;2022-12-24T09:40:06;76427.63;;;-147.06;97.52
54453;BME280;40363;52.270;10.546;2022-12-24T09:42:37;76427.63;;;-147.06;98.15
54453;BME280;40363;52.270;10.546;2022-12-24T09:45:07;76439.97;;;-147.06;98.83
54453;BME280;40363;52.270;10.546;2022-12-24T09:47:38;76442.03;;;-147.06;98.71
54453;BME280;40363;52.270;10.546;2022-12-24T09:50:16;76446.13;;;-147.06;98.99
54453;BME280;40363;52.270;10.546;2022-12-24T09:52:47;76448.19;;;-147.06;98.80
54453;BME280;40363;52.270;10.546;2022-12-24T09:55:16;76452.28;;;-147.06;98.68
54453;BME280;40363;52.270;10.546;2022-12-24T09:57:46;76448.19;;;-147.06;98.30
54453;BME280;40363;52.270;10.546;2022-12-24T10:00:15;76442.03;;;-147.06;98.15
54453;BME280;40363;52.270;10.546;2022-12-24T10:02:44;76431.75;;;-147.06;97.50
54453;BME280;40363;52.270;10.546;2022-12-24T10:05:14;76431.75;;;-147.06;97.11
54453;BME280;40363;52.270;10.546;2022-12-24T10:07:43;76419.41;;;-147.06;96.70
54453;BME280;40363;52.270;10.546;2022-12-24T10:10:16;76398.84;;;-147.06;95.61
54453;BME280;40363;52.270;10.546;2022-12-24T10:12:44;76390.63;;;-147.06;94.93
54453;BME280;40363;52.270;10.546;2022-12-24T10:15:14;76386.53;;;-147.06;94.80
54453;BME280;40363;52.270;10.546;2022-12-24T10:17:48;76396.81;;;-147.06;94.38
54453;BME280;40363;52.270;10.546;2022-12-24T10:20:30;76398.84;;;-147.06;94.68
54453;BME280;40363;52.270;10.546;2022-12-24T10:23:00;76386.53;;;-147.06;94.16
54453;BME280;40363;52.270;10.546;2022-12-24T10:25:29;76359.81;;;-147.06;93.68
54453;BME280;40363;52.270;10.546;2022-12-24T10:27:59;76355.69;;;-147.06;93.01
54453;BME280;40363;52.270;10.546;2022-12-24T10:30:26;76351.59;;;-147.06;92.71
54453;BME280;40363;52.270;10.546;2022-12-24T10:32:53;76345.41;;;-147.06;92.14
54453;BME280;40363;52.270;10.546;2022-12-24T10:35:21;76341.31;;;-147.06;91.83
54453;BME280;40363;52.270;10.546;2022-12-24T10:37:50;76349.53;;;-147.06;91.47
54453;BME280;40363;52.270;10.546;2022-12-24T10:40:22;76361.84;;;-147.06;91.72
54453;BME280;40363;52.270;10.546;2022-12-24T10:42:50;76370.09;;;-147.06;91.80
54453;BME280;40363;52.270;10.546;2022-12-24T10:45:17;76357.75;;;-147.06;91.27
54453;BME280;40363;52.270;10.546;2022-12-24T10:47:47;76361.84;;;-147.06;91.52
54453;BME280;40363;52.270;10.546;2022-12-24T10:50:15;76359.81;;;-147.06;91.71
54453;BME280;40363;52.270;10.546;2022-12-24T10:52:43;76370.09;;;-147.06;92.11
54453;BME280;40363;52.270;10.546;2022-12-24T10:55:20;76370.09;;;-147.06;91.52
54453;BME280;40363;52.270;10.546;2022-12-24T10:57:55;76370.09;;;-147.06;91.67
54453;BME280;40363;52.270;10.546;2022-12-24T11:00:23;76378.31;;;-147.06;91.97
54453;BME280;40363;52.270;10.546;2022-12-24T11:03:04;76376.25;;;-147.06;92.17
54453;BME280;40363;52.270;10.546;2022-12-24T11:05:31;76376.25;;;-147.06;92.38
54453;BME280;40363;52.270;10.546;2022-12-24T11:07:58;76365.97;;;-147.06;92.24
54453;BME280;40363;52.270;10.546;2022-12-24T11:10:27;76376.25;;;-147.06;92.31
54453;BME280;40363;52.270;10.546;2022-12-24T11:12:53;76372.13;;;-147.06;92.33
54453;BME280;40363;52.270;10.546;2022-12-24T11:15:21;76374.19;;;-147.06;92.33
54453;BME280;40363;52.270;10.546;2022-12-24T11:17:51;76378.31;;;-147.06;92.83
54453;BME280;40363;52.270;10.546;2022-12-24T11:20:18;76374.19;;;-147.06;92.81
54453;BME280;40363;52.270;10.546;2022-12-24T11:22:49;76378.31;;;-147.06;92.32
54453;BME280;40363;52.270;10.546;2022-12-24T11:25:18;76376.25;;;-147.06;92.46
54453;BME280;40363;52.270;10.546;2022-12-24T11:27:47;76386.53;;;-147.06;92.78
54453;BME280;40363;52.270;10.546;2022-12-24T11:30:20;76384.47;;;-147.06;93.18
54453;BME280;40363;52.270;10.546;2022-12-24T11:32:49;76386.53;;;-147.06;93.18
54453;BME280;40363;52.270;10.546;2022-12-24T11:35:17;76390.63;;;-147.06;93.09
54453;BME280;40363;52.270;10.546;2022-12-24T11:37:46;76392.69;;;-147.06;93.15
54453;BME280;40363;52.270;10.546;2022-12-24T11:40:18;76380.34;;;-147.06;92.96
54453;BME280;40363;52.270;10.546;2022-12-24T11:42:46;76380.34;;;-147.06;93.29
54453;BME280;40363;52.270;10.546;2022-12-24T11:45:18;76372.13;;;-147.06;92.79
54453;BME280;40363;52.270;10.546;2022-12-24T11:47:46;76374.19;;;-147.06;92.41
54453;BME280;40363;52.270;10.546;2022-12-24T11:50:20;76372.13;;;-147.06;93.04
54453;BME280;40363;52.270;10.546;2022-12-24T11:52:47;76378.31;;;-147.06;93.08
54453;BME280;40363;52.270;10.546;2022-12-24T11:55:16;76374.19;;;-147.06;93.40
54453;BME280;40363;52.270;10.546;2022-12-24T11:57:48;76378.31;;;-147.06;93.49
54453;BME280;40363;52.270;10.546;2022-12-24T12:00:16;76384.47;;;-147.06;93.95
54453;BME280;40363;52.270;10.546;2022-12-24T12:02:42;76382.41;;;-147.06;94.17
54453;BME280;40363;52.270;10.546;2022-12-24T12:05:12;76398.84;;;-147.06;94.54
54453;BME280;40363;52.270;10.546;2022-12-24T12:07:41;76407.06;;;-147.06;95.37
54453;BME280;40363;52.270;10.546;2022-12-24T12:10:10;76421.47;;;-147.06;95.64
54453;BME280;40363;52.270;10.546;2022-12-24T12:12:41;76415.31;;;-147.06;95.82
54453;BME280;40363;52.270;10.546;2022-12-24T12:15:11;76409.13;;;-147.06;95.97
54453;BME280;40363;52.270;10.546;2022-12-24T12:17:39;76419.41;;;-147.06;96.63
54453;BME280;40363;52.270;10.546;2022-12-24T12:20:09;76419.41;;;-147.06;97.00
54453;BME280;40363;52.270;10.546;2022-12-24T12:22:38;76433.78;;;-147.06;97.00
54453;BME280;40363;52.270;10.546;2022-12-24T12:25:10;76439.97;;;-147.06;96.78
54453;BME280;40363;52.270;10.546;2022-12-24T12:27:43;76442.03;;;-147.06;96.98
54453;BME280;40363;52.270;10.546;2022-12-24T12:30:13;76437.91;;;-147.06;96.87
54453;BME280;40363;52.270;10.546;2022-12-24T12:32:41;76446.13;;;-147.06;97.08